createdAt,value
2017-10-30T00:00:59.956Z,17.43
2017-10-30T00:03:28.926Z,15.17
2017-10-30T00:05:57.862Z,16.77
2017-10-30T00:08:25.997Z,20.33
2017-10-30T00:10:54.152Z,18.83
2017-10-30T00:13:22.298Z,19.90
2017-10-30T00:15:50.473Z,20.13
2017-10-30T00:18:18.912Z,24.10
2017-10-30T00:20:47.013Z,19.93
2017-10-30T00:23:15.729Z,23.33
2017-10-30T00:25:43.877Z,15.50
2017-10-30T00:28:12.023Z,19.50
2017-10-30T00:30:40.949Z,12.23
2017-10-30T00:33:09.188Z,12.40
2017-10-30T00:35:38.170Z,17.13
2017-10-30T00:38:06.274Z,18.00
2017-10-30T00:40:34.481Z,17.97
2017-10-30T00:43:02.719Z,15.47
2017-10-30T00:45:30.853Z,17.53
2017-10-30T00:47:58.986Z,18.67
2017-10-30T00:50:27.095Z,18.30
2017-10-30T00:52:55.316Z,16.97
2017-10-30T00:55:23.444Z,21.27
2017-10-30T00:57:52.592Z,18.77
2017-10-30T01:00:20.818Z,19.83
2017-10-30T01:02:48.936Z,15.40
2017-10-30T01:05:17.101Z,21.20
2017-10-30T01:07:45.299Z,14.70
2017-10-30T01:10:13.433Z,20.67
2017-10-30T01:12:41.576Z,14.43
2017-10-30T01:15:10.520Z,16.93
2017-10-30T01:17:38.651Z,20.83
2017-10-30T01:20:06.933Z,14.70
2017-10-30T01:22:35.153Z,16.77
2017-10-30T01:25:03.379Z,17.40
2017-10-30T01:27:32.281Z,24.20
2017-10-30T01:30:00.452Z,16.67
2017-10-30T01:32:28.608Z,18.23
2017-10-30T01:34:56.718Z,18.33
2017-10-30T01:37:24.875Z,17.07
2017-10-30T01:39:53.072Z,15.23
2017-10-30T01:42:21.228Z,23.60
2017-10-30T01:44:49.350Z,21.60
2017-10-30T01:47:17.552Z,10.30
2017-10-30T01:49:45.742Z,23.27
2017-10-30T01:52:13.935Z,16.57
2017-10-30T01:54:42.167Z,15.63
2017-10-30T01:57:10.393Z,18.53
2017-10-30T01:59:39.440Z,18.27
2017-10-30T02:02:08.490Z,14.67
2017-10-30T02:04:37.298Z,16.90
2017-10-30T02:07:05.463Z,23.70
2017-10-30T02:09:33.807Z,16.53
2017-10-30T02:12:02.008Z,13.43
2017-10-30T02:14:30.304Z,20.63
2017-10-30T02:16:58.456Z,15.83
2017-10-30T02:19:28.165Z,14.23
2017-10-30T02:21:56.400Z,21.97
2017-10-30T02:24:24.699Z,20.23
2017-10-30T02:26:52.978Z,20.47
2017-10-30T02:29:21.157Z,13.57
2017-10-30T02:31:49.378Z,22.63
2017-10-30T02:34:19.444Z,14.97
2017-10-30T02:36:47.718Z,16.13
2017-10-30T02:39:16.043Z,19.67
2017-10-30T02:41:45.034Z,14.70
2017-10-30T02:44:13.261Z,18.33
2017-10-30T02:46:41.444Z,14.33
2017-10-30T02:49:09.629Z,16.30
2017-10-30T02:51:37.769Z,15.17
2017-10-30T02:54:06.080Z,17.83
2017-10-30T02:56:34.220Z,15.63
2017-10-30T02:59:02.331Z,9.33
2017-10-30T03:01:31.358Z,17.00
2017-10-30T03:03:59.587Z,16.90
2017-10-30T03:06:28.251Z,19.47
2017-10-30T03:08:56.391Z,16.30
2017-10-30T03:11:24.548Z,21.53
2017-10-30T03:13:53.537Z,16.67
2017-10-30T03:16:22.407Z,18.67
2017-10-30T03:18:50.582Z,19.87
2017-10-30T03:21:18.756Z,19.03
2017-10-30T03:23:47.657Z,16.93
2017-10-30T03:26:16.589Z,10.80
2017-10-30T03:28:45.762Z,24.40
2017-10-30T03:31:13.914Z,16.70
2017-10-30T03:33:42.103Z,17.70
2017-10-30T03:36:10.286Z,15.37
2017-10-30T03:38:38.434Z,16.03
2017-10-30T03:41:07.326Z,12.23
2017-10-30T03:43:36.220Z,13.40
2017-10-30T03:46:05.218Z,16.30
2017-10-30T03:48:33.336Z,17.77
2017-10-30T03:51:01.486Z,11.77
2017-10-30T03:53:29.670Z,19.37
2017-10-30T03:55:58.005Z,12.77
2017-10-30T03:58:26.921Z,19.87
2017-10-30T04:00:55.061Z,11.33
2017-10-30T04:03:24.005Z,24.07
2017-10-30T04:05:52.139Z,19.90
2017-10-30T04:08:20.253Z,12.87
2017-10-30T04:10:48.559Z,16.33
2017-10-30T04:13:17.514Z,18.47
2017-10-30T04:15:45.673Z,18.03
2017-10-30T04:18:13.784Z,17.50
2017-10-30T04:20:42.009Z,9.23
2017-10-30T04:23:10.149Z,11.90
2017-10-30T04:25:39.242Z,17.33
2017-10-30T04:28:07.500Z,15.17
2017-10-30T04:30:35.638Z,15.33
2017-10-30T04:33:04.550Z,17.27
2017-10-30T04:35:32.695Z,14.27
2017-10-30T04:38:00.893Z,16.17
2017-10-30T04:40:29.008Z,22.20
2017-10-30T04:42:58.061Z,9.83
2017-10-30T04:45:26.988Z,12.10
2017-10-30T04:47:55.133Z,18.27
2017-10-30T04:50:23.284Z,12.10
2017-10-30T04:52:51.411Z,13.87
2017-10-30T04:55:20.439Z,15.10
2017-10-30T04:57:48.612Z,23.40
2017-10-30T05:00:16.862Z,18.30
2017-10-30T05:02:45.067Z,14.43
2017-10-30T05:05:13.205Z,11.87
2017-10-30T05:07:41.338Z,15.97
2017-10-30T05:10:09.501Z,12.40
2017-10-30T05:12:37.615Z,12.67
2017-10-30T05:15:05.768Z,16.73
2017-10-30T05:17:33.997Z,12.87
2017-10-30T05:20:02.127Z,16.00
2017-10-30T05:22:31.209Z,19.40
2017-10-30T05:25:00.249Z,23.13
2017-10-30T05:27:28.409Z,18.70
2017-10-30T05:29:57.251Z,14.83
2017-10-30T05:32:25.439Z,19.47
2017-10-30T05:34:53.713Z,16.73
2017-10-30T05:37:21.859Z,11.20
2017-10-30T05:39:49.977Z,14.50
2017-10-30T05:42:18.228Z,26.33
2017-10-30T05:44:46.379Z,16.17
2017-10-30T05:47:14.552Z,24.30
2017-10-30T05:49:42.785Z,16.60
2017-10-30T05:52:11.073Z,13.73
2017-10-30T05:54:39.227Z,17.53
2017-10-30T05:57:08.160Z,18.67
2017-10-30T05:59:36.486Z,23.80
2017-10-30T06:02:04.631Z,28.60
2017-10-30T06:04:32.768Z,29.93
2017-10-30T06:07:00.908Z,35.23
2017-10-30T06:09:29.115Z,36.10
2017-10-30T06:11:57.284Z,29.77
2017-10-30T06:14:25.922Z,24.97
2017-10-30T06:16:54.055Z,18.53
2017-10-30T06:19:22.872Z,24.60
2017-10-30T06:21:51.202Z,16.40
2017-10-30T06:24:19.657Z,15.97
2017-10-30T06:26:48.589Z,23.73
2017-10-30T06:29:16.742Z,21.80
2017-10-30T06:31:44.966Z,18.93
2017-10-30T06:34:13.108Z,14.27
2017-10-30T06:36:41.692Z,27.77
2017-10-30T06:39:09.866Z,20.87
2017-10-30T06:41:38.053Z,20.90
2017-10-30T06:44:06.214Z,24.03
2017-10-30T06:46:34.861Z,16.90
2017-10-30T06:49:04.140Z,13.23
2017-10-30T06:51:33.599Z,14.30
2017-10-30T06:54:01.738Z,21.27
2017-10-30T06:56:30.022Z,18.70
2017-10-30T06:58:58.283Z,26.97
2017-10-30T07:01:26.458Z,32.10
2017-10-30T07:03:54.739Z,23.60
2017-10-30T07:06:22.954Z,25.60
2017-10-30T07:08:51.104Z,29.40
2017-10-30T07:11:19.239Z,22.33
2017-10-30T07:13:48.394Z,30.70
2017-10-30T07:16:16.538Z,21.27
2017-10-30T07:18:44.690Z,23.33
2017-10-30T07:21:12.823Z,26.67
2017-10-30T07:23:41.006Z,17.23
2017-10-30T07:26:09.180Z,18.40
2017-10-30T07:28:37.340Z,29.03
2017-10-30T07:31:05.572Z,18.13
2017-10-30T07:33:33.766Z,15.67
2017-10-30T07:36:02.014Z,16.93
2017-10-30T07:38:30.911Z,14.53
2017-10-30T07:40:59.815Z,18.93
2017-10-30T07:43:27.965Z,20.23
2017-10-30T07:45:56.141Z,27.27
2017-10-30T07:48:24.293Z,23.20
2017-10-30T07:50:53.186Z,22.40
2017-10-30T07:53:22.167Z,18.03
2017-10-30T07:55:51.102Z,15.50
2017-10-30T07:58:19.284Z,21.90
2017-10-30T08:00:47.468Z,18.77
2017-10-30T08:03:15.713Z,20.40
2017-10-30T08:05:43.820Z,17.73
2017-10-30T08:08:11.987Z,19.50
2017-10-30T08:10:40.210Z,25.20
2017-10-30T08:13:08.541Z,15.93
2017-10-30T08:15:36.692Z,18.10
2017-10-30T08:18:05.597Z,16.27
2017-10-30T08:20:33.825Z,27.90
2017-10-30T08:23:01.993Z,20.13
2017-10-30T08:25:30.892Z,20.77
2017-10-30T08:27:59.150Z,19.43
2017-10-30T08:30:28.136Z,24.57
2017-10-30T08:32:57.084Z,21.23
2017-10-30T08:35:26.079Z,21.00
2017-10-30T08:37:54.298Z,27.70
2017-10-30T08:40:22.500Z,24.50
2017-10-30T08:42:50.636Z,31.10
2017-10-30T08:45:19.596Z,31.30
2017-10-30T08:47:47.825Z,26.83
2017-10-30T08:50:16.004Z,19.70
2017-10-30T08:52:44.327Z,26.17
2017-10-30T08:55:12.484Z,18.30
2017-10-30T08:57:40.636Z,28.77
2017-10-30T09:00:08.846Z,25.57
2017-10-30T09:02:37.762Z,31.97
2017-10-30T09:05:06.695Z,17.23
2017-10-30T09:07:34.845Z,27.87
2017-10-30T09:10:03.772Z,26.37
2017-10-30T09:12:31.945Z,31.00
2017-10-30T09:15:00.071Z,27.00
2017-10-30T09:17:28.993Z,25.37
2017-10-30T09:19:57.226Z,24.60
2017-10-30T09:22:25.367Z,28.93
2017-10-30T09:24:53.532Z,27.40
2017-10-30T09:27:21.695Z,35.37
2017-10-30T09:29:49.832Z,23.57
2017-10-30T09:32:18.862Z,21.93
2017-10-30T09:34:47.140Z,24.57
2017-10-30T09:37:15.445Z,26.63
2017-10-30T09:39:43.561Z,23.00
2017-10-30T09:42:12.516Z,29.53
2017-10-30T09:44:40.752Z,18.43
2017-10-30T09:47:08.896Z,23.90
2017-10-30T09:49:37.043Z,26.33
2017-10-30T09:52:06.006Z,29.23
2017-10-30T09:54:34.237Z,24.07
2017-10-30T09:57:03.214Z,26.60
2017-10-30T09:59:32.137Z,23.27
2017-10-30T10:02:00.300Z,20.40
2017-10-30T10:04:28.455Z,25.10
2017-10-30T10:06:57.414Z,18.23
2017-10-30T10:09:25.700Z,28.27
2017-10-30T10:11:54.995Z,29.93
2017-10-30T10:14:24.293Z,22.87
2017-10-30T10:16:52.524Z,21.93
2017-10-30T10:19:20.700Z,23.57
2017-10-30T10:21:51.313Z,30.17
2017-10-30T10:24:19.475Z,22.10
2017-10-30T10:26:48.464Z,26.37
2017-10-30T10:29:16.653Z,25.60
2017-10-30T10:31:45.541Z,19.00
2017-10-30T10:34:14.447Z,22.13
2017-10-30T10:36:42.635Z,21.13
2017-10-30T10:39:10.772Z,28.10
2017-10-30T10:41:39.239Z,20.27
2017-10-30T10:44:07.756Z,22.83
2017-10-30T10:46:36.754Z,22.53
2017-10-30T10:49:04.926Z,26.63
2017-10-30T10:51:43.479Z,35.20
2017-10-30T10:54:11.668Z,20.07
2017-10-30T10:56:39.959Z,19.30
2017-10-30T11:03:00.975Z,21.57
2017-10-30T11:05:29.108Z,23.40
2017-10-30T11:07:58.009Z,24.13
2017-10-30T11:10:26.906Z,20.17
2017-10-30T11:12:55.113Z,23.93
2017-10-30T11:15:23.250Z,27.30
2017-10-30T11:17:51.448Z,29.87
2017-10-30T11:20:19.690Z,29.07
2017-10-30T11:22:48.615Z,17.77
2017-10-30T11:25:17.127Z,21.43
2017-10-30T11:27:46.078Z,29.33
2017-10-30T11:30:15.019Z,14.47
2017-10-30T11:32:43.178Z,22.20
2017-10-30T11:35:11.315Z,21.50
2017-10-30T11:37:40.448Z,24.00
2017-10-30T11:40:08.683Z,21.63
2017-10-30T11:42:36.872Z,26.30
2017-10-30T11:45:04.999Z,22.33
2017-10-30T11:47:33.954Z,48.13
2017-10-30T11:50:02.234Z,36.70
2017-10-30T11:52:30.403Z,26.67
2017-10-30T11:54:59.312Z,21.73
2017-10-30T11:57:27.514Z,19.30
2017-10-30T11:59:55.687Z,18.33
2017-10-30T12:02:23.864Z,25.93
2017-10-30T12:04:53.888Z,21.30
2017-10-30T12:07:22.136Z,14.97
2017-10-30T12:09:50.312Z,23.13
2017-10-30T12:12:19.243Z,21.07
2017-10-30T12:14:47.549Z,18.63
2017-10-30T12:17:15.679Z,19.17
2017-10-30T12:19:43.863Z,19.60
2017-10-30T12:22:12.023Z,16.10
2017-10-30T12:24:40.158Z,21.03
2017-10-30T12:27:08.342Z,15.33
2017-10-30T12:29:37.325Z,26.43
2017-10-30T12:32:05.602Z,21.83
2017-10-30T12:34:34.542Z,22.43
2017-10-30T12:37:02.722Z,16.33
2017-10-30T12:39:30.877Z,17.20
2017-10-30T12:41:59.031Z,15.50
2017-10-30T12:44:27.216Z,21.23
2017-10-30T12:46:55.431Z,22.60
2017-10-30T12:49:23.649Z,29.57
2017-10-30T12:51:51.827Z,29.10
2017-10-30T12:54:20.008Z,20.43
2017-10-30T12:56:48.216Z,24.40
2017-10-30T12:59:16.359Z,21.90
2017-10-30T13:01:44.533Z,20.37
2017-10-30T13:04:12.731Z,16.70
2017-10-30T13:06:41.006Z,30.10
2017-10-30T13:09:10.162Z,24.10
2017-10-30T13:11:38.999Z,21.23
2017-10-30T13:14:07.167Z,21.13
2017-10-30T13:16:35.311Z,17.40
2017-10-30T13:19:04.389Z,12.47
2017-10-30T13:21:32.577Z,13.83
2017-10-30T13:24:00.751Z,15.97
2017-10-30T13:26:29.670Z,21.13
2017-10-30T13:28:57.886Z,16.87
2017-10-30T13:31:26.831Z,17.70
2017-10-30T13:33:55.030Z,20.60
2017-10-30T13:36:24.048Z,20.20
2017-10-30T13:38:52.301Z,17.47
2017-10-30T13:41:20.535Z,12.10
2017-10-30T13:43:48.662Z,14.23
2017-10-30T13:46:16.905Z,26.17
2017-10-30T13:48:45.996Z,18.90
2017-10-30T13:51:14.273Z,15.50
2017-10-30T13:53:42.548Z,13.63
2017-10-30T13:56:10.727Z,16.67
2017-10-30T13:58:38.853Z,15.03
2017-10-30T14:01:07.790Z,19.53
2017-10-30T14:03:35.948Z,15.50
2017-10-30T14:06:04.170Z,16.67
2017-10-30T14:08:32.305Z,26.67
2017-10-30T14:11:00.455Z,14.60
2017-10-30T14:13:29.410Z,18.80
2017-10-30T14:15:57.560Z,17.07
2017-10-30T14:18:25.738Z,26.63
2017-10-30T14:20:53.884Z,20.37
2017-10-30T14:23:22.041Z,15.33
2017-10-30T14:25:50.200Z,16.40
2017-10-30T14:28:19.161Z,21.17
2017-10-30T14:30:47.351Z,18.30
2017-10-30T14:33:15.531Z,14.93
2017-10-30T14:35:43.796Z,17.50
2017-10-30T14:38:12.061Z,14.20
2017-10-30T14:40:40.181Z,12.87
2017-10-30T14:43:08.375Z,18.43
2017-10-30T14:45:36.634Z,14.63
2017-10-30T14:48:04.979Z,17.70
2017-10-30T14:50:34.003Z,23.13
2017-10-30T14:53:02.257Z,12.40
2017-10-30T14:55:31.303Z,14.07
2017-10-30T14:57:59.426Z,16.70
2017-10-30T15:00:28.513Z,12.60
2017-10-30T15:02:57.493Z,15.80
2017-10-30T15:05:25.611Z,12.83
2017-10-30T15:07:53.798Z,18.30
2017-10-30T15:10:22.049Z,24.03
2017-10-30T15:12:50.285Z,12.87
2017-10-30T15:15:18.425Z,19.70
2017-10-30T15:17:46.618Z,15.60
2017-10-30T15:20:15.015Z,12.70
2017-10-30T15:22:43.216Z,14.00
2017-10-30T15:25:12.219Z,15.20
2017-10-30T15:27:40.404Z,13.30
2017-10-30T15:30:08.606Z,13.90
2017-10-30T15:32:36.916Z,10.73
2017-10-30T15:35:05.980Z,18.33
2017-10-30T15:37:34.257Z,10.13
2017-10-30T15:40:02.419Z,14.67
2017-10-30T15:42:30.683Z,11.77
2017-10-30T15:44:59.049Z,12.60
2017-10-30T15:47:27.223Z,19.20
2017-10-30T15:49:55.365Z,12.80
2017-10-30T15:52:24.371Z,14.83
2017-10-30T15:54:52.892Z,15.73
2017-10-30T15:57:21.084Z,11.47
2017-10-30T15:59:49.351Z,9.40
2017-10-30T16:02:17.634Z,14.97
2017-10-30T16:04:45.799Z,15.80
2017-10-30T16:07:13.947Z,9.60
2017-10-30T16:09:42.178Z,12.27
2017-10-30T16:12:11.099Z,12.37
2017-10-30T16:14:39.287Z,18.10
2017-10-30T16:17:07.543Z,8.90
2017-10-30T16:19:35.723Z,13.07
2017-10-30T16:22:04.186Z,12.63
2017-10-30T16:24:32.582Z,9.10
2017-10-30T16:27:00.727Z,18.27
2017-10-30T16:29:28.909Z,14.00
2017-10-30T16:31:58.509Z,11.60
2017-10-30T16:34:26.682Z,15.63
2017-10-30T16:36:54.858Z,12.33
2017-10-30T16:39:23.778Z,13.47
2017-10-30T16:41:52.028Z,15.60
2017-10-30T16:44:22.122Z,7.13
2017-10-30T16:46:50.256Z,12.53
2017-10-30T16:49:18.422Z,18.87
2017-10-30T16:51:46.664Z,14.27
2017-10-30T16:54:14.844Z,11.37
2017-10-30T16:56:43.751Z,16.20
2017-10-30T16:59:11.937Z,13.03
2017-10-30T17:01:40.108Z,23.67
2017-10-30T17:04:08.275Z,21.13
2017-10-30T17:06:36.460Z,15.47
2017-10-30T17:09:04.631Z,14.63
2017-10-30T17:11:32.773Z,14.57
2017-10-30T17:14:00.979Z,26.27
2017-10-30T17:16:29.172Z,30.57
2017-10-30T17:18:57.546Z,20.23
2017-10-30T17:21:26.992Z,28.87
2017-10-30T17:23:55.160Z,13.73
2017-10-30T17:26:24.632Z,18.67
2017-10-30T17:28:52.957Z,22.37
2017-10-30T17:31:23.517Z,15.80
2017-10-30T17:33:51.708Z,27.33
2017-10-30T17:36:19.974Z,13.70
2017-10-30T17:38:48.110Z,24.87
2017-10-30T17:41:16.263Z,25.00
2017-10-30T17:43:44.464Z,17.10
2017-10-30T17:46:13.410Z,21.30
2017-10-30T17:48:41.610Z,20.00
2017-10-30T17:51:09.781Z,23.23
2017-10-30T17:53:38.017Z,21.03
2017-10-30T17:56:06.214Z,21.23
2017-10-30T17:58:34.326Z,23.87
2017-10-30T18:01:02.475Z,16.90
2017-10-30T18:03:30.636Z,21.93
2017-10-30T18:05:58.786Z,20.00
2017-10-30T18:08:27.086Z,24.77
2017-10-30T18:10:55.220Z,28.60
2017-10-30T18:13:24.143Z,25.53
2017-10-30T18:15:52.485Z,19.10
2017-10-30T18:18:20.692Z,19.30
2017-10-30T18:20:48.829Z,28.30
2017-10-30T18:23:16.998Z,21.60
2017-10-30T18:25:46.077Z,21.33
2017-10-30T18:28:14.759Z,13.30
2017-10-30T18:30:42.913Z,18.53
2017-10-30T18:33:12.022Z,15.40
2017-10-30T18:35:40.196Z,18.80
2017-10-30T18:38:08.404Z,22.83
2017-10-30T18:40:37.311Z,23.27
2017-10-30T18:43:06.371Z,34.10
2017-10-30T18:45:35.278Z,29.33
2017-10-30T18:48:04.286Z,24.40
2017-10-30T18:50:33.351Z,22.43
2017-10-30T18:53:01.678Z,25.53
2017-10-30T18:55:29.842Z,42.93
2017-10-30T18:57:58.027Z,42.03
2017-10-30T19:00:27.036Z,26.37
2017-10-30T19:02:55.953Z,24.07
2017-10-30T19:05:24.910Z,17.60
2017-10-30T19:07:53.123Z,18.13
2017-10-30T19:10:21.389Z,28.37
2017-10-30T19:12:49.608Z,18.93
2017-10-30T19:15:17.748Z,26.50
2017-10-30T19:17:46.714Z,23.00
2017-10-30T19:20:16.397Z,24.90
2017-10-30T19:22:44.590Z,27.47
2017-10-30T19:38:24.293Z,36.53
2017-10-30T19:40:52.489Z,35.27
2017-10-30T19:43:20.625Z,28.90
2017-10-30T19:45:48.868Z,49.77
2017-10-30T19:48:17.008Z,28.30
2017-10-30T19:50:46.417Z,30.27
2017-10-30T19:53:14.611Z,38.97
2017-10-30T19:55:42.830Z,30.83
2017-10-30T19:58:11.041Z,31.67
2017-10-30T20:00:39.277Z,36.47
2017-10-30T20:03:08.243Z,37.03
2017-10-30T20:05:43.802Z,27.93
2017-10-30T20:08:27.768Z,32.03
2017-10-30T20:11:01.770Z,33.20
2017-10-30T20:13:30.214Z,32.93
2017-10-30T20:15:58.708Z,28.47
2017-10-30T20:18:27.220Z,28.03
2017-10-30T20:20:57.180Z,29.20
2017-10-30T20:23:25.718Z,34.90
2017-10-30T20:25:54.279Z,31.03
2017-10-30T20:28:22.882Z,23.20
2017-10-30T20:30:52.147Z,26.53
2017-10-30T20:33:20.719Z,27.93
2017-10-30T20:35:49.178Z,29.17
2017-10-30T20:38:17.692Z,26.00
2017-10-30T20:40:46.202Z,34.07
2017-10-30T20:43:14.754Z,28.40
2017-10-30T20:45:43.417Z,28.37
2017-10-30T20:48:11.951Z,30.30
2017-10-30T20:50:40.391Z,30.03
2017-10-30T20:53:09.015Z,25.43
2017-10-30T20:55:37.491Z,36.33
2017-10-30T20:58:05.947Z,36.10
2017-10-30T21:00:34.489Z,33.40
2017-10-30T21:03:03.841Z,33.20
2017-10-30T21:05:32.310Z,30.10
2017-10-30T21:08:00.749Z,28.80
2017-10-30T21:10:29.978Z,36.23
2017-10-30T21:12:58.529Z,26.27
2017-10-30T21:15:27.777Z,31.67
2017-10-30T21:17:57.010Z,34.37
2017-10-30T21:20:25.490Z,28.80
2017-10-30T21:22:54.839Z,27.83
2017-10-30T21:25:23.273Z,21.27
2017-10-30T21:27:53.300Z,31.90
2017-10-30T21:30:22.557Z,37.27
2017-10-30T21:32:51.111Z,28.70
2017-10-30T21:35:19.292Z,27.70
2017-10-30T21:37:48.215Z,24.10
2017-10-30T21:40:16.441Z,27.37
2017-10-30T21:42:44.622Z,24.50
2017-10-30T21:45:13.621Z,24.83
2017-10-30T21:47:42.492Z,27.27
2017-10-30T21:50:11.458Z,26.63
2017-10-30T21:52:40.649Z,30.17
2017-10-30T21:55:09.644Z,24.97
2017-10-30T21:57:37.767Z,26.77
2017-10-30T22:00:06.072Z,28.80
2017-10-30T22:02:34.317Z,30.40
2017-10-30T22:05:02.485Z,29.00
2017-10-30T22:07:30.666Z,26.17
2017-10-30T22:09:59.571Z,27.70
2017-10-30T22:12:27.764Z,22.57
2017-10-30T22:14:56.021Z,23.10
2017-10-30T22:17:24.157Z,24.23
2017-10-30T22:19:53.099Z,22.90
2017-10-30T22:22:21.385Z,25.77
2017-10-30T22:24:49.654Z,30.87
2017-10-30T22:27:17.810Z,25.97
2017-10-30T22:29:45.943Z,24.97
2017-10-30T22:32:14.915Z,23.40
2017-10-30T22:34:43.836Z,32.03
2017-10-30T22:37:12.757Z,23.03
2017-10-30T22:39:40.925Z,26.37
2017-10-30T22:42:09.122Z,24.03
2017-10-30T22:44:37.365Z,21.80
2017-10-30T22:47:05.513Z,27.10
2017-10-30T22:49:34.430Z,24.60
2017-10-30T22:52:02.587Z,22.73
2017-10-30T22:54:30.819Z,21.30
2017-10-30T22:56:58.947Z,21.57
2017-10-30T22:59:27.132Z,25.33
2017-10-30T23:01:55.268Z,21.23
2017-10-30T23:04:24.194Z,27.70
2017-10-30T23:06:52.446Z,27.23
2017-10-30T23:09:21.345Z,27.40
2017-10-30T23:11:50.706Z,33.77
2017-10-30T23:14:18.902Z,22.53
2017-10-30T23:16:47.841Z,25.20
2017-10-30T23:19:15.983Z,40.00
2017-10-30T23:21:44.592Z,30.23
2017-10-30T23:24:12.815Z,24.00
2017-10-30T23:26:40.970Z,20.90
2017-10-30T23:29:09.338Z,26.87
2017-10-30T23:31:37.502Z,27.60
2017-10-30T23:34:06.449Z,31.33
2017-10-30T23:36:34.588Z,22.07
2017-10-30T23:39:02.796Z,23.73
2017-10-30T23:41:31.726Z,22.30
2017-10-30T23:43:59.903Z,20.37
2017-10-30T23:46:28.024Z,23.20
2017-10-30T23:48:57.857Z,17.87
2017-10-30T23:51:26.007Z,21.37
2017-10-30T23:53:54.921Z,20.43
2017-10-30T23:56:23.725Z,25.50
2017-10-30T23:58:51.877Z,26.73
